ORER/EBL METAR and TAF weather

Enter ICAO airport designator
Station Type Date Time Source
ORER METAR 2022/01/26 19:00 UTC NOAA

ORER 261900Z 12009KT 9000 FEW040 SCT090 12/01 Q1011


Station Type Date Time Source
ORER Decoded METAR 2022/01/26 19:00 UTC NOAA

Station name not available
Jan 26, 2022 - 02:00 PM EST / 2022.01.26 1900 UTC
Wind: from the ESE (120 degrees) at 10 MPH (9 KT):0
Visibility: 5 mile(s):0
Sky conditions: partly cloudy
Temperature: 53 F (12 C)
Dew Point: 33 F (1 C)
Relative Humidity: 46%
Pressure (altimeter): 29.85 in. Hg (1011 hPa)
ob: ORER 261900Z 12009KT 9000 FEW040 SCT090 12/01 Q1011
cycle: 19

Station Type Date Time Source
ORER TAF 2022/01/26 18:18 UTC NOAA

TAF TAF ORER 261700Z 2618/2718 10008KT 9999 FEW040
TEMPO 2704/2716 5000 RA SCT035 BKN090
TEMPO 2708/2712 G25KT

Example: see airport list